createdAt,value
2018-06-04T00:01:51.831Z,36.23
2018-06-04T00:04:26.268Z,39.47
2018-06-04T00:06:58.869Z,33.50
2018-06-04T00:09:31.962Z,40.37
2018-06-04T00:12:04.641Z,44.67
2018-06-04T00:14:37.013Z,41.50
2018-06-04T00:17:09.959Z,37.87
2018-06-04T00:19:43.294Z,41.47
2018-06-04T00:22:15.981Z,42.17
2018-06-04T00:24:49.548Z,45.27
2018-06-04T00:27:22.088Z,42.97
2018-06-04T00:29:54.738Z,41.87
2018-06-04T00:32:28.424Z,44.30
2018-06-04T00:35:00.993Z,43.73
2018-06-04T00:37:34.333Z,43.40
2018-06-04T00:40:07.116Z,42.45
2018-06-04T00:42:40.169Z,40.63
2018-06-04T00:45:14.336Z,45.77
2018-06-04T00:47:47.990Z,55.23
2018-06-04T00:50:20.704Z,49.57
2018-06-04T00:52:53.109Z,33.60
2018-06-04T00:55:25.856Z,51.70
2018-06-04T00:57:58.292Z,56.00
2018-06-04T01:00:30.805Z,47.97
2018-06-04T01:03:03.660Z,47.60
2018-06-04T01:05:36.173Z,49.60
2018-06-04T01:08:08.635Z,45.00
2018-06-04T01:10:42.275Z,41.45
2018-06-04T01:13:14.983Z,38.87
2018-06-04T01:15:47.724Z,44.43
2018-06-04T01:18:20.565Z,45.43
2018-06-04T01:20:53.080Z,33.17
2018-06-04T01:23:25.552Z,56.80
2018-06-04T01:25:58.797Z,45.77
2018-06-04T01:28:31.224Z,49.83
2018-06-04T01:31:03.891Z,63.00
2018-06-04T01:36:08.836Z,66.20
2018-06-04T01:38:41.572Z,50.40
2018-06-04T01:41:14.505Z,65.17
2018-06-04T01:43:47.633Z,65.07
2018-06-04T01:46:20.101Z,72.10
2018-06-04T01:48:52.830Z,73.03
2018-06-04T01:51:25.489Z,70.27
2018-06-04T01:53:58.033Z,67.73
2018-06-04T01:56:30.776Z,65.03
2018-06-04T01:59:03.201Z,65.60
2018-06-04T02:01:35.803Z,56.50
2018-06-04T02:04:08.553Z,56.43
2018-06-04T02:06:41.837Z,63.97
2018-06-04T02:09:14.536Z,62.60
2018-06-04T02:11:48.033Z,66.80
2018-06-04T02:14:20.520Z,76.57
2018-06-04T02:16:53.387Z,80.53
2018-06-04T02:19:26.321Z,97.97
2018-06-04T02:21:59.430Z,87.88
2018-06-04T02:24:31.820Z,71.67
2018-06-04T02:27:04.677Z,66.13
2018-06-04T02:29:37.239Z,53.27
2018-06-04T02:32:09.781Z,66.07
2018-06-04T02:34:43.286Z,97.43
2018-06-04T02:37:15.998Z,98.30
2018-06-04T02:39:48.784Z,73.93
2018-06-04T02:42:21.783Z,83.17
2018-06-04T02:44:54.233Z,68.95
2018-06-04T02:47:26.713Z,83.67
2018-06-04T02:49:59.508Z,74.63
2018-06-04T02:52:32.039Z,83.93
2018-06-04T02:55:04.456Z,79.83
2018-06-04T02:57:37.169Z,93.80
2018-06-04T03:00:09.897Z,108.23
2018-06-04T03:02:44.664Z,102.30
2018-06-04T03:05:17.865Z,92.43
2018-06-04T03:07:50.705Z,90.12
2018-06-04T03:10:23.338Z,102.60
2018-06-04T03:12:56.399Z,68.33
2018-06-04T03:15:28.840Z,87.93
2018-06-04T03:18:01.382Z,70.63
2018-06-04T03:20:34.238Z,62.97
2018-06-04T03:23:07.103Z,76.53
2018-06-04T03:25:39.690Z,77.50
2018-06-04T03:28:12.752Z,85.93
2018-06-04T03:30:45.502Z,74.33
2018-06-04T03:33:18.113Z,123.60
2018-06-04T03:35:51.105Z,88.63
2018-06-04T03:38:24.036Z,76.03
2018-06-04T03:40:56.621Z,64.70
2018-06-04T03:43:29.443Z,50.40
2018-06-04T03:46:02.049Z,52.47
2018-06-04T03:48:34.570Z,58.60
2018-06-04T03:51:07.459Z,45.30
2018-06-04T03:53:40.244Z,63.87
2018-06-04T03:56:12.705Z,45.83
2018-06-04T03:58:45.993Z,49.63
2018-06-04T04:01:18.813Z,41.17
2018-06-04T04:03:52.277Z,51.73
2018-06-04T04:06:25.066Z,57.33
2018-06-04T04:08:57.453Z,69.93
2018-06-04T04:11:30.351Z,64.20
2018-06-04T04:14:03.388Z,47.43
2018-06-04T04:16:38.349Z,50.67
2018-06-04T04:19:10.867Z,56.27
2018-06-04T04:21:44.743Z,74.30
2018-06-04T04:24:17.960Z,48.13
2018-06-04T04:26:51.746Z,52.50
2018-06-04T04:29:24.368Z,52.43
2018-06-04T04:31:57.073Z,64.27
2018-06-04T04:34:29.625Z,48.57
2018-06-04T04:37:03.109Z,48.90
2018-06-04T04:39:36.005Z,47.43
2018-06-04T04:42:08.579Z,56.72
2018-06-04T04:44:40.924Z,54.97
2018-06-04T04:47:14.033Z,51.23
2018-06-04T04:49:46.976Z,53.67
2018-06-04T04:52:19.729Z,51.47
2018-06-04T04:54:53.313Z,60.93
2018-06-04T04:57:25.897Z,51.60
2018-06-04T04:59:58.877Z,57.73
2018-06-04T05:02:31.631Z,62.53
2018-06-04T05:05:04.142Z,54.90
2018-06-04T05:07:39.006Z,76.03
2018-06-04T05:10:11.939Z,57.37
2018-06-04T05:12:44.624Z,51.67
2018-06-04T05:15:16.687Z,51.80
2018-06-04T05:17:50.870Z,50.97
2018-06-04T05:20:25.184Z,58.57
2018-06-04T05:23:01.429Z,56.50
2018-06-04T05:25:34.683Z,52.20
2018-06-04T05:28:08.740Z,52.63
2018-06-04T05:30:41.370Z,48.50
2018-06-04T05:35:48.797Z,47.65
2018-06-04T05:38:21.441Z,46.67
2018-06-04T05:40:54.598Z,45.57
2018-06-04T05:43:27.405Z,46.97
2018-06-04T05:46:10.701Z,45.63
2018-06-04T05:48:43.241Z,130.63
2018-06-04T05:51:16.041Z,50.83
2018-06-04T05:53:49.110Z,41.63
2018-06-04T05:56:21.604Z,39.57
2018-06-04T05:58:54.554Z,40.00
2018-06-04T06:01:27.018Z,38.63
2018-06-04T06:04:03.745Z,34.90
2018-06-04T06:06:36.892Z,36.23
2018-06-04T06:09:10.779Z,36.53
2018-06-04T06:11:43.560Z,34.90
2018-06-04T06:14:16.437Z,32.63
2018-06-04T06:16:48.843Z,35.27
2018-06-04T06:19:21.575Z,34.70
2018-06-04T06:21:55.258Z,35.07
2018-06-04T06:24:28.704Z,38.43
2018-06-04T06:27:01.149Z,32.77
2018-06-04T06:29:34.140Z,30.48
2018-06-04T06:32:06.764Z,28.00
2018-06-04T06:34:39.369Z,31.47
2018-06-04T06:37:12.280Z,30.83
2018-06-04T06:39:44.817Z,23.93
2018-06-04T06:42:17.174Z,28.17
2018-06-04T06:44:50.338Z,20.67
2018-06-04T06:47:22.969Z,22.70
2018-06-04T06:49:56.542Z,19.93
2018-06-04T06:52:29.326Z,20.30
2018-06-04T06:55:02.311Z,19.93
2018-06-04T06:57:34.700Z,20.80
2018-06-04T07:00:07.621Z,19.70
2018-06-04T07:02:40.054Z,19.27
2018-06-04T07:05:12.472Z,20.63
2018-06-04T07:07:44.800Z,20.43
2018-06-04T07:10:18.446Z,21.70
2018-06-04T07:12:51.594Z,20.30
2018-06-04T07:15:24.426Z,20.07
2018-06-04T07:17:58.073Z,21.97
2018-06-04T07:20:31.150Z,18.23
2018-06-04T07:23:03.749Z,20.80
2018-06-04T07:25:36.667Z,15.30
2018-06-04T07:28:09.528Z,16.07
2018-06-04T07:30:43.788Z,16.67
2018-06-04T07:33:18.211Z,15.02
2018-06-04T07:35:50.916Z,13.10
2018-06-04T07:38:23.967Z,12.63
2018-06-04T07:40:57.669Z,14.03
2018-06-04T07:43:30.376Z,14.77
2018-06-04T07:46:03.479Z,11.57
2018-06-04T07:48:36.253Z,11.73
2018-06-04T07:51:08.786Z,10.33
2018-06-04T07:53:41.196Z,11.47
2018-06-04T07:56:14.159Z,10.83
2018-06-04T07:58:46.564Z,15.83
2018-06-04T08:01:18.881Z,7.93
2018-06-04T08:03:51.758Z,7.17
2018-06-04T08:06:25.274Z,8.07
2018-06-04T08:08:58.099Z,8.73
2018-06-04T08:11:30.671Z,7.73
2018-06-04T08:14:03.980Z,8.53
2018-06-04T08:16:36.856Z,10.23
2018-06-04T08:19:10.554Z,9.13
2018-06-04T08:21:43.222Z,6.87
2018-06-04T08:24:16.300Z,7.47
2018-06-04T08:26:50.029Z,7.33
2018-06-04T08:29:22.782Z,9.67
2018-06-04T08:31:55.479Z,7.83
2018-06-04T08:34:28.194Z,9.90
2018-06-04T08:37:00.875Z,7.50
2018-06-04T08:39:33.590Z,8.10
2018-06-04T08:42:06.884Z,7.00
2018-06-04T08:44:40.845Z,7.72
2018-06-04T08:47:14.742Z,6.80
2018-06-04T08:49:47.689Z,8.23
2018-06-04T08:52:20.300Z,7.03
2018-06-04T08:54:52.633Z,6.50
2018-06-04T08:57:25.477Z,5.97
2018-06-04T08:59:58.010Z,5.67
2018-06-04T09:02:30.578Z,4.47
2018-06-04T09:05:03.453Z,6.60
2018-06-04T09:07:35.983Z,6.17
2018-06-04T09:10:09.079Z,5.30
2018-06-04T09:12:43.273Z,5.70
2018-06-04T09:15:19.194Z,5.20
2018-06-04T09:17:52.588Z,5.28
2018-06-04T09:20:25.640Z,6.00
2018-06-04T09:22:58.553Z,6.47
2018-06-04T09:25:31.273Z,8.03
2018-06-04T09:28:04.404Z,5.93
2018-06-04T09:30:37.006Z,8.87
2018-06-04T09:33:10.417Z,7.25
2018-06-04T09:35:44.539Z,7.83
2018-06-04T09:38:17.841Z,7.87
2018-06-04T09:40:50.568Z,7.17
2018-06-04T09:43:23.411Z,7.27
2018-06-04T09:45:55.854Z,7.50
2018-06-04T09:48:28.401Z,10.40
2018-06-04T09:51:01.183Z,9.17
2018-06-04T09:53:34.780Z,9.27
2018-06-04T09:56:12.832Z,9.23
2018-06-04T09:58:46.745Z,9.93
2018-06-04T10:01:21.041Z,9.30
2018-06-04T10:03:54.225Z,7.93
2018-06-04T10:06:26.618Z,10.27
2018-06-04T10:08:59.143Z,8.93
2018-06-04T10:11:32.215Z,8.00
2018-06-04T10:14:05.289Z,9.40
2018-06-04T10:16:37.956Z,7.57
2018-06-04T10:19:13.570Z,9.00
2018-06-04T10:21:47.620Z,8.00
2018-06-04T10:24:20.765Z,6.70
2018-06-04T10:26:55.122Z,7.37
2018-06-04T10:29:29.143Z,6.70
2018-06-04T10:32:02.815Z,8.23
2018-06-04T10:34:35.844Z,7.80
2018-06-04T10:37:12.413Z,8.37
2018-06-04T10:39:45.493Z,8.13
2018-06-04T10:42:20.702Z,7.07
2018-06-04T10:44:53.267Z,9.18
2018-06-04T10:47:25.656Z,9.03
2018-06-04T10:49:58.407Z,8.10
2018-06-04T10:52:31.279Z,9.97
2018-06-04T10:55:04.395Z,8.13
2018-06-04T10:57:37.403Z,10.07
2018-06-04T11:00:10.637Z,7.67
2018-06-04T11:02:47.869Z,6.30
2018-06-04T11:05:21.895Z,7.07
2018-06-04T11:07:54.431Z,8.70
2018-06-04T11:10:27.039Z,9.37
2018-06-04T11:13:00.831Z,7.90
2018-06-04T11:15:33.500Z,9.70
2018-06-04T11:18:06.002Z,7.43
2018-06-04T11:20:38.581Z,8.63
2018-06-04T11:23:11.282Z,8.23
2018-06-04T11:25:43.850Z,7.37
2018-06-04T11:28:17.014Z,15.13
2018-06-04T11:30:49.680Z,9.90
2018-06-04T11:33:22.074Z,8.25
2018-06-04T11:35:55.661Z,8.13
2018-06-04T11:38:32.807Z,7.12
2018-06-04T11:41:07.754Z,6.47
2018-06-04T11:43:41.295Z,6.95
2018-06-04T11:46:17.028Z,6.23
2018-06-04T11:48:50.621Z,7.03
2018-06-04T11:51:25.898Z,7.57
2018-06-04T11:53:59.791Z,9.23
2018-06-04T11:56:38.250Z,8.00
2018-06-04T11:59:12.405Z,7.97
2018-06-04T12:01:46.517Z,7.83
2018-06-04T12:04:20.201Z,6.93
2018-06-04T12:06:59.757Z,8.13
2018-06-04T12:09:35.480Z,8.63
2018-06-04T12:12:10.016Z,7.33
2018-06-04T12:14:45.648Z,8.13
2018-06-04T12:17:19.637Z,7.77
2018-06-04T12:19:53.494Z,7.80
2018-06-04T12:22:25.920Z,7.67
2018-06-04T12:24:58.936Z,8.20
2018-06-04T12:27:37.709Z,7.70
2018-06-04T12:30:13.796Z,7.70
2018-06-04T12:32:50.348Z,7.15
2018-06-04T12:35:24.753Z,6.40
2018-06-04T12:37:58.994Z,7.10
2018-06-04T12:40:34.037Z,6.67
2018-06-04T12:43:08.703Z,7.83
2018-06-04T12:45:46.132Z,9.33
2018-06-04T12:48:18.934Z,8.13
2018-06-04T12:50:51.804Z,7.27
2018-06-04T12:53:24.950Z,6.63
2018-06-04T12:55:58.769Z,6.73
2018-06-04T12:58:38.582Z,6.10
2018-06-04T13:01:12.983Z,5.93
2018-06-04T13:03:46.773Z,7.43
2018-06-04T13:06:20.431Z,8.70
2018-06-04T13:08:56.780Z,9.40
2018-06-04T13:11:31.676Z,9.67
2018-06-04T13:14:08.429Z,10.73
2018-06-04T13:16:46.676Z,10.60
2018-06-04T13:19:21.560Z,9.23
2018-06-04T13:21:55.948Z,9.57
2018-06-04T13:24:29.524Z,8.97
2018-06-04T13:27:04.646Z,9.00
2018-06-04T13:29:38.794Z,7.63
2018-06-04T13:32:13.893Z,10.83
2018-06-04T13:34:48.501Z,8.43
2018-06-04T13:37:21.766Z,8.07
2018-06-04T13:39:55.762Z,12.00
2018-06-04T13:42:31.214Z,9.30
2018-06-04T13:45:09.555Z,9.33
2018-06-04T13:47:45.193Z,10.00
2018-06-04T13:50:18.276Z,10.23
2018-06-04T13:52:51.119Z,8.87
2018-06-04T13:55:25.392Z,8.37
2018-06-04T13:58:01.093Z,9.83
2018-06-04T14:00:52.936Z,9.03
2018-06-04T14:03:30.205Z,8.83
2018-06-04T14:06:04.504Z,8.07
2018-06-04T14:08:44.677Z,9.77
2018-06-04T14:11:17.294Z,8.53
2018-06-04T14:13:49.793Z,9.53
2018-06-04T14:16:24.031Z,9.20
2018-06-04T14:18:57.703Z,10.73
2018-06-04T14:21:35.928Z,9.83
2018-06-04T14:24:09.279Z,9.45
2018-06-04T14:26:41.753Z,10.30
2018-06-04T14:29:15.407Z,9.07
2018-06-04T14:31:49.793Z,9.10
2018-06-04T14:34:24.003Z,11.33
2018-06-04T14:37:03.070Z,12.30
2018-06-04T14:39:38.762Z,11.63
2018-06-04T14:42:17.024Z,11.23
2018-06-04T14:44:51.406Z,11.77
2018-06-04T14:47:23.968Z,11.07
2018-06-04T14:50:05.223Z,11.97
2018-06-04T14:52:42.677Z,11.60
2018-06-04T14:55:15.335Z,12.77
2018-06-04T14:57:51.228Z,11.30
2018-06-04T15:00:26.897Z,12.27
2018-06-04T15:03:04.012Z,10.23
2018-06-04T15:05:39.359Z,10.80
2018-06-04T15:08:14.870Z,10.03
2018-06-04T15:10:47.582Z,11.10
2018-06-04T15:13:21.537Z,10.77
2018-06-04T15:15:55.043Z,9.90
2018-06-04T15:18:30.866Z,10.87
2018-06-04T15:21:04.609Z,12.07
2018-06-04T15:23:38.807Z,10.00
2018-06-04T15:26:13.594Z,10.73
2018-06-04T15:28:48.403Z,10.70
2018-06-04T15:31:32.529Z,11.27
2018-06-04T15:34:09.368Z,11.47
2018-06-04T15:36:42.816Z,11.93
2018-06-04T15:39:19.643Z,11.37
2018-06-04T15:41:53.651Z,10.73
2018-06-04T15:44:27.580Z,12.13
2018-06-04T15:47:11.516Z,11.53
2018-06-04T15:49:50.500Z,14.27
2018-06-04T15:52:24.109Z,16.53
2018-06-04T15:55:02.923Z,16.37
2018-06-04T15:57:37.057Z,15.07
2018-06-04T16:00:14.945Z,15.73
2018-06-04T16:02:47.548Z,16.53
2018-06-04T16:05:21.696Z,17.25
2018-06-04T16:07:57.448Z,17.60
2018-06-04T16:10:34.412Z,16.03
2018-06-04T16:13:08.038Z,16.10
2018-06-04T16:15:41.538Z,17.40
2018-06-04T16:18:19.480Z,16.67
2018-06-04T16:21:05.701Z,18.50
2018-06-04T16:23:40.656Z,15.33
2018-06-04T16:26:16.550Z,18.77
2018-06-04T16:28:50.627Z,17.23
2018-06-04T16:31:24.567Z,16.40
2018-06-04T16:34:01.077Z,16.50
2018-06-04T16:36:35.848Z,14.67
2018-06-04T16:39:12.273Z,17.65
2018-06-04T16:41:46.894Z,15.33
2018-06-04T16:44:21.952Z,16.30
2018-06-04T16:47:03.211Z,17.07
2018-06-04T16:49:37.924Z,52.37
2018-06-04T16:52:15.707Z,17.63
2018-06-04T16:54:54.397Z,16.93
2018-06-04T16:57:35.715Z,17.13
2018-06-04T17:00:09.789Z,17.07
2018-06-04T17:02:45.636Z,16.50
2018-06-04T17:05:19.039Z,16.77
2018-06-04T17:07:52.249Z,16.67
2018-06-04T17:10:27.989Z,15.60
2018-06-04T17:13:05.289Z,18.43
2018-06-04T17:15:38.216Z,18.23
2018-06-04T17:18:14.575Z,17.07
2018-06-04T17:20:49.498Z,15.20
2018-06-04T17:23:22.628Z,16.33
2018-06-04T17:25:59.502Z,15.00
2018-06-04T17:28:34.279Z,16.40
2018-06-04T17:31:11.429Z,16.03
2018-06-04T17:33:47.731Z,18.23
2018-06-04T17:36:24.744Z,15.60
2018-06-04T17:38:59.562Z,16.67
2018-06-04T17:41:35.178Z,22.40
2018-06-04T17:44:08.478Z,16.20
2018-06-04T17:46:42.223Z,15.60
2018-06-04T17:49:15.980Z,17.43
2018-06-04T17:51:49.198Z,15.87
2018-06-04T17:54:23.915Z,16.57
2018-06-04T17:56:57.158Z,15.97
2018-06-04T17:59:32.349Z,17.30
2018-06-04T18:02:06.943Z,16.87
2018-06-04T18:04:42.853Z,17.00
2018-06-04T18:07:23.681Z,17.30
2018-06-04T18:10:06.156Z,16.57
2018-06-04T18:12:40.774Z,15.37
2018-06-04T18:15:17.051Z,18.50
2018-06-04T18:17:50.652Z,18.03
2018-06-04T18:20:26.357Z,18.37
2018-06-04T18:23:01.638Z,18.23
2018-06-04T18:25:38.135Z,17.70
2018-06-04T18:28:16.497Z,19.23
2018-06-04T18:30:51.553Z,17.53
2018-06-04T18:33:27.124Z,18.73
2018-06-04T18:36:02.653Z,16.47
2018-06-04T18:38:36.489Z,16.70
2018-06-04T18:41:13.981Z,18.90
2018-06-04T18:43:50.805Z,18.53
2018-06-04T18:46:29.922Z,18.40
2018-06-04T18:49:04.580Z,15.03
2018-06-04T18:51:38.711Z,15.77
2018-06-04T18:54:16.008Z,16.37
2018-06-04T18:56:51.930Z,17.57
2018-06-04T18:59:29.603Z,18.23
2018-06-04T19:02:06.410Z,35.67
2018-06-04T19:04:39.538Z,17.17
2018-06-04T19:07:14.410Z,17.03
2018-06-04T19:09:57.911Z,17.43
2018-06-04T19:12:34.385Z,19.43
2018-06-04T19:15:20.360Z,18.10
2018-06-04T19:17:57.604Z,17.07
2018-06-04T19:20:35.245Z,17.52
2018-06-04T19:23:11.919Z,19.12
2018-06-04T19:25:48.297Z,19.07
2018-06-04T19:28:25.200Z,19.10
2018-06-04T19:31:02.021Z,19.10
2018-06-04T19:33:37.132Z,18.07
2018-06-04T19:36:12.297Z,21.27
2018-06-04T19:38:45.419Z,19.30
2018-06-04T19:41:18.012Z,20.83
2018-06-04T19:44:19.651Z,19.33
2018-06-04T19:46:54.671Z,18.33
2018-06-04T19:49:31.323Z,18.15
2018-06-04T19:52:07.232Z,19.03
2018-06-04T19:54:42.847Z,18.08
2018-06-04T19:57:17.787Z,20.43
2018-06-04T19:59:55.274Z,15.73
2018-06-04T20:02:32.189Z,18.70
2018-06-04T20:05:07.070Z,16.90
2018-06-04T20:07:43.042Z,17.33
2018-06-04T20:10:24.934Z,33.23
2018-06-04T20:13:00.401Z,16.87
2018-06-04T20:15:36.060Z,16.90
2018-06-04T20:18:13.728Z,18.53
2018-06-04T20:20:47.773Z,17.77
2018-06-04T20:23:23.440Z,18.47
2018-06-04T20:25:59.726Z,17.83
2018-06-04T20:28:33.126Z,16.40
2018-06-04T20:31:07.301Z,17.77
2018-06-04T20:33:41.381Z,15.77
2018-06-04T20:36:17.307Z,20.73
2018-06-04T20:38:53.917Z,18.03
2018-06-04T20:41:29.035Z,17.07
2018-06-04T20:44:09.069Z,17.33
2018-06-04T20:46:44.692Z,18.77
2018-06-04T20:49:23.199Z,18.07
2018-06-04T20:52:01.718Z,17.10
2018-06-04T20:54:45.300Z,18.67
2018-06-04T20:57:23.466Z,22.27
2018-06-04T21:00:00.423Z,17.93
2018-06-04T21:02:35.619Z,18.03
2018-06-04T21:05:08.397Z,18.17
2018-06-04T21:07:41.816Z,18.47
2018-06-04T21:10:17.956Z,17.37
2018-06-04T21:12:54.722Z,21.70
2018-06-04T21:15:30.743Z,19.30
2018-06-04T21:18:04.629Z,20.03
2018-06-04T21:20:38.029Z,24.00
2018-06-04T21:23:11.676Z,20.90
2018-06-04T21:25:46.355Z,24.30
2018-06-04T21:28:23.098Z,24.33
2018-06-04T21:30:56.497Z,21.00
2018-06-04T21:33:31.451Z,21.10
2018-06-04T21:36:05.563Z,22.40
2018-06-04T21:38:40.544Z,20.50
2018-06-04T21:41:15.353Z,22.13
2018-06-04T21:43:50.393Z,22.77
2018-06-04T21:46:26.623Z,25.10
2018-06-04T21:49:02.461Z,24.58
2018-06-04T21:51:39.648Z,24.53
2018-06-04T21:54:14.087Z,22.60
2018-06-04T21:56:47.437Z,23.17
2018-06-04T21:59:20.026Z,27.10
2018-06-04T22:01:54.815Z,26.27
2018-06-04T22:04:31.246Z,23.00
2018-06-04T22:07:04.566Z,23.47
2018-06-04T22:09:41.541Z,28.57
2018-06-04T22:12:14.604Z,25.03
2018-06-04T22:14:59.463Z,23.67
2018-06-04T22:17:36.527Z,24.23
2018-06-04T22:20:30.650Z,23.57
2018-06-04T22:23:03.812Z,26.70
2018-06-04T22:25:38.620Z,25.87
2018-06-04T22:28:33.428Z,26.93
2018-06-04T22:31:07.628Z,27.77
2018-06-04T22:33:44.565Z,28.17
2018-06-04T22:36:22.247Z,27.13
2018-06-04T22:38:55.176Z,28.33
2018-06-04T22:41:28.508Z,24.80
2018-06-04T22:44:03.077Z,28.17
2018-06-04T22:46:37.758Z,25.97
2018-06-04T22:49:10.988Z,27.13
2018-06-04T22:51:44.837Z,25.97
2018-06-04T22:54:18.263Z,31.55
2018-06-04T22:56:51.583Z,30.17
2018-06-04T22:59:25.304Z,28.93
2018-06-04T23:01:58.293Z,30.67
2018-06-04T23:04:31.294Z,35.13
2018-06-04T23:07:08.197Z,34.22
2018-06-04T23:09:41.151Z,29.47
2018-06-04T23:12:16.949Z,33.60
2018-06-04T23:14:52.189Z,30.50
2018-06-04T23:17:25.474Z,34.50
2018-06-04T23:20:00.875Z,32.67
2018-06-04T23:22:35.407Z,31.83
2018-06-04T23:25:07.934Z,33.23
2018-06-04T23:27:40.944Z,33.73
2018-06-04T23:30:15.132Z,32.37
2018-06-04T23:32:47.751Z,39.33
2018-06-04T23:35:20.494Z,37.03
2018-06-04T23:37:53.070Z,34.90
2018-06-04T23:40:25.487Z,41.60
2018-06-04T23:42:58.271Z,40.87
2018-06-04T23:45:30.981Z,44.70
2018-06-04T23:48:03.602Z,43.73
2018-06-04T23:50:36.668Z,51.00
2018-06-04T23:53:09.200Z,49.90
2018-06-04T23:55:42.844Z,58.97
2018-06-04T23:58:18.388Z,51.77
